Rozetta, Illinois
Current Conditions -  °F | °C
As of 5:35 PM on Wednesday 22 Oct 2014 (Local Time) from KGBG Reporting Station
Haze Haze  
Wind Chill: 57°   Ceiling: Unl
Heat Index: 57°   Visibility: 2.5mi
Dew Point: 38°   Wind: 6mph
Humidity: 51%   Direction: 130°SE
Pressure: 30.21"   Gusts: NA
Location:  40.8511°N, 90.7293°W
Report Text: KGBG 222235Z AUTO 13005KT 2 1/2SM HZ CLR 14/04 A3021 RMK AO2 VIS 1 3/4V5 T01370036
Loading
Personal Weather Stations






























Interactive Weather Map
Tropical Storm Tracking
New forecast layout! Learn more

10-Day Weather Forecast

Advertisements
Track Severe Weather on mobile